createdAt,value
2022-11-21T00:02:00.429Z,99390.13
2022-11-21T00:07:01.921Z,99381.88
2022-11-21T00:12:03.482Z,99386.91
2022-11-21T00:17:04.873Z,99378.94
2022-11-21T00:22:06.381Z,99375.50
2022-11-21T00:27:07.782Z,99366.56
2022-11-21T00:32:09.199Z,99374.63
2022-11-21T00:37:10.616Z,99370.59
2022-11-21T00:42:12.049Z,99364.91
2022-11-21T00:47:13.451Z,99362.38
2022-11-21T00:52:16.032Z,99363.16
2022-11-21T00:57:17.459Z,99358.78
2022-11-21T01:02:18.956Z,99358.31
2022-11-21T01:07:20.500Z,99340.16
2022-11-21T01:12:22.337Z,99331.66
2022-11-21T01:17:23.760Z,99300.91
2022-11-21T01:22:25.226Z,99307.44
2022-11-21T01:27:26.623Z,99312.47
2022-11-21T01:32:28.031Z,99312.16
2022-11-21T01:37:29.660Z,99292.38
2022-11-21T01:42:48.977Z,99286.16
2022-11-21T01:47:50.615Z,99278.88
2022-11-21T01:52:52.016Z,99276.38
2022-11-21T01:57:53.426Z,99283.31
2022-11-21T02:03:02.276Z,99282.47
2022-11-21T02:08:12.662Z,99268.56
2022-11-21T02:13:14.296Z,99248.84
2022-11-21T02:18:15.696Z,99247.88
2022-11-21T02:23:31.986Z,99250.03
2022-11-21T02:28:33.809Z,99245.84
2022-11-21T02:33:35.399Z,99231.13
2022-11-21T02:38:38.780Z,99224.69
2022-11-21T02:43:47.854Z,99213.94
2022-11-21T02:48:49.409Z,99199.94
2022-11-21T02:53:50.805Z,99197.13
2022-11-21T02:58:52.225Z,99194.78
2022-11-21T03:03:53.628Z,99188.03
2022-11-21T03:08:55.081Z,99174.19
2022-11-21T03:13:56.490Z,99162.56
2022-11-21T03:18:58.088Z,99160.56
2022-11-21T03:23:59.494Z,99147.91
2022-11-21T03:29:01.029Z,99141.50
2022-11-21T03:34:02.621Z,99137.59
2022-11-21T03:39:04.517Z,99127.75
2022-11-21T03:44:08.795Z,99098.91
2022-11-21T03:49:11.163Z,99097.50
2022-11-21T03:54:12.647Z,99091.72
2022-11-21T03:59:14.047Z,99090.25
2022-11-21T04:04:15.462Z,99078.94
2022-11-21T04:09:16.884Z,99072.78
2022-11-21T04:14:18.287Z,99078.47
2022-11-21T04:19:19.775Z,99071.47
2022-11-21T04:24:21.187Z,99066.44
2022-11-21T04:29:22.649Z,99051.47
2022-11-21T04:34:24.092Z,99046.31
2022-11-21T04:39:25.535Z,99036.88
2022-11-21T04:44:28.597Z,99026.63
2022-11-21T04:49:30.214Z,99020.41
2022-11-21T04:54:33.231Z,99015.88
2022-11-21T04:59:34.629Z,99012.28
2022-11-21T05:04:36.039Z,99007.47
2022-11-21T05:09:37.495Z,98999.19
2022-11-21T05:14:38.901Z,98998.06
2022-11-21T05:19:40.304Z,98993.97
2022-11-21T05:24:41.704Z,98982.16
2022-11-21T05:29:43.208Z,98974.88
2022-11-21T05:34:44.652Z,98970.03
2022-11-21T05:39:46.046Z,98957.88
2022-11-21T05:44:47.446Z,98951.63
2022-11-21T05:49:48.876Z,98937.50
2022-11-21T05:54:50.287Z,98927.38
2022-11-21T05:59:51.806Z,98939.13
2022-11-21T06:04:53.251Z,98925.06
2022-11-21T06:09:54.687Z,98919.00
2022-11-21T06:14:56.084Z,98922.25
2022-11-21T06:19:57.574Z,98919.59
2022-11-21T06:24:59.000Z,98907.97
2022-11-21T06:30:00.415Z,98903.44
2022-11-21T06:35:01.810Z,98908.97
2022-11-21T06:40:03.439Z,98903.59
2022-11-21T06:45:05.339Z,98906.44
2022-11-21T06:50:07.748Z,98906.31
2022-11-21T06:55:10.750Z,98905.38
2022-11-21T07:00:12.815Z,98909.66
2022-11-21T07:05:14.365Z,98898.38
2022-11-21T07:10:15.862Z,98908.88
2022-11-21T07:15:17.281Z,98917.94
2022-11-21T07:20:18.877Z,98903.03
2022-11-21T07:25:20.281Z,98907.81
2022-11-21T07:30:21.706Z,98903.84
2022-11-21T07:35:23.536Z,98914.13
2022-11-21T07:40:25.274Z,98914.13
2022-11-21T07:45:26.704Z,98901.38
2022-11-21T07:50:28.426Z,98902.63
2022-11-21T07:55:30.426Z,98904.03
2022-11-21T08:00:33.896Z,98899.44
2022-11-21T08:05:42.836Z,98895.25
2022-11-21T08:10:45.699Z,98892.88
2022-11-21T08:15:47.174Z,98892.25
2022-11-21T08:20:48.598Z,98894.88
2022-11-21T08:25:51.872Z,98904.19
2022-11-21T08:30:53.606Z,98899.22
2022-11-21T08:35:55.083Z,98885.31
2022-11-21T08:41:17.762Z,98890.78
2022-11-21T08:46:19.424Z,98894.56
2022-11-21T08:51:21.818Z,98908.88
2022-11-21T08:56:23.379Z,98899.06
2022-11-21T09:01:24.827Z,98901.72
2022-11-21T09:06:26.371Z,98901.25
2022-11-21T09:11:27.884Z,98908.09
2022-11-21T09:16:47.762Z,98911.88
2022-11-21T09:21:50.111Z,98906.16
2022-11-21T09:26:51.638Z,98896.97
2022-11-21T09:31:53.058Z,98903.59
2022-11-21T09:36:55.549Z,98905.09
2022-11-21T09:42:09.023Z,98911.72
2022-11-21T09:47:21.552Z,98901.47
2022-11-21T09:52:27.989Z,98908.97
2022-11-21T09:57:34.637Z,98909.59
2022-11-21T10:02:36.921Z,98917.72
2022-11-21T10:07:38.639Z,98907.25
2022-11-21T10:13:43.362Z,98893.94
2022-11-21T10:18:55.533Z,98892.94
2022-11-21T10:24:07.574Z,98897.50
2022-11-21T10:29:19.255Z,98894.97
2022-11-21T10:34:24.290Z,98888.06
2022-11-21T10:39:50.928Z,98894.44
2022-11-21T10:45:11.092Z,98895.47
2022-11-21T10:50:25.156Z,98893.69
2022-11-21T10:55:26.613Z,98897.97
2022-11-21T11:00:28.104Z,98890.19
2022-11-21T11:05:33.801Z,98893.00
2022-11-21T11:10:38.577Z,98891.34
2022-11-21T11:15:54.216Z,98888.88
2022-11-21T11:21:20.480Z,98890.44
2022-11-21T11:26:28.201Z,98898.91
2022-11-21T11:31:40.294Z,98910.28
2022-11-21T11:36:56.471Z,98904.09
2022-11-21T11:42:32.066Z,98904.84
2022-11-21T11:47:43.274Z,98909.25
2022-11-21T11:53:04.229Z,98904.66
2022-11-21T11:58:12.237Z,98908.84
2022-11-21T12:03:59.051Z,98904.59
2022-11-21T12:09:28.280Z,98919.81
2022-11-21T12:15:08.495Z,98920.03
2022-11-21T12:20:22.835Z,98942.03
2022-11-21T12:25:34.931Z,98950.09
2022-11-21T12:30:54.590Z,98960.13
2022-11-21T12:36:18.449Z,98968.81
2022-11-21T12:41:51.369Z,98982.88
2022-11-21T12:47:11.964Z,98996.22
2022-11-21T12:52:39.843Z,98988.22
2022-11-21T12:58:04.985Z,99000.34
2022-11-21T13:03:33.870Z,99003.75
2022-11-21T13:08:36.972Z,99006.53
2022-11-21T13:13:43.907Z,99020.81
2022-11-21T13:18:48.365Z,99023.63
2022-11-21T13:23:49.796Z,99040.50
2022-11-21T13:29:06.918Z,99036.88
2022-11-21T13:34:37.353Z,99038.91
2022-11-21T13:39:38.928Z,99041.03
2022-11-21T13:44:41.326Z,99065.28
2022-11-21T13:50:05.047Z,99069.78
2022-11-21T13:55:33.778Z,99053.41
2022-11-21T14:01:12.468Z,99073.53
2022-11-21T14:06:33.815Z,99080.34
2022-11-21T14:11:49.527Z,99083.59
2022-11-21T14:16:59.296Z,99078.47
2022-11-21T14:22:01.149Z,99095.06
2022-11-21T14:27:06.819Z,99100.78
2022-11-21T14:32:15.178Z,99104.28
2022-11-21T14:37:16.846Z,99113.97
2022-11-21T14:42:18.490Z,99107.38
2022-11-21T14:47:26.290Z,99106.00
2022-11-21T14:52:31.751Z,99110.63
2022-11-21T14:57:37.810Z,99123.34
2022-11-21T15:02:39.754Z,99120.50
2022-11-21T15:07:44.182Z,99103.84
2022-11-21T15:12:48.753Z,99110.53
2022-11-21T15:18:25.987Z,99118.19
2022-11-21T15:23:40.279Z,99133.28
2022-11-21T15:28:54.883Z,99137.09
2022-11-21T15:39:28.038Z,99146.22
2022-11-21T15:44:29.908Z,99156.69
2022-11-21T15:49:33.228Z,99155.19
2022-11-21T15:54:35.195Z,99159.06
2022-11-21T15:57:15.754Z,99144.13
2022-11-21T15:59:36.767Z,99162.63
2022-11-21T16:04:38.376Z,99159.72
2022-11-21T16:09:40.979Z,99160.13
2022-11-21T16:14:42.565Z,99166.97
2022-11-21T16:19:45.613Z,99168.88
2022-11-21T16:24:47.240Z,99161.59
2022-11-21T16:29:48.875Z,99153.59
2022-11-21T16:34:51.663Z,99142.03
2022-11-21T16:39:53.211Z,99151.25
2022-11-21T16:44:54.759Z,99146.00
2022-11-21T16:49:56.539Z,99141.03
2022-11-21T16:54:58.163Z,99156.03
2022-11-21T17:00:00.687Z,99158.88
2022-11-21T17:05:02.451Z,99160.63
2022-11-21T17:10:04.367Z,99162.75
2022-11-21T17:15:09.111Z,99154.66
2022-11-21T17:20:10.977Z,99162.69
2022-11-21T17:25:12.884Z,99175.72
2022-11-21T17:30:15.889Z,99171.44
2022-11-21T17:35:17.536Z,99163.78
2022-11-21T17:40:19.092Z,99168.81
2022-11-21T17:45:20.657Z,99166.59
2022-11-21T17:50:22.331Z,99175.03
2022-11-21T17:55:23.894Z,99183.91
2022-11-21T18:00:25.438Z,99190.59
2022-11-21T18:05:26.988Z,99192.19
2022-11-21T18:10:42.642Z,99192.56
2022-11-21T18:15:45.198Z,99188.13
2022-11-21T18:20:46.957Z,99171.88
2022-11-21T18:25:48.499Z,99180.44
2022-11-21T18:30:50.089Z,99178.03
2022-11-21T18:35:51.622Z,99175.03
2022-11-21T18:40:53.195Z,99165.47
2022-11-21T18:45:54.739Z,99173.06
2022-11-21T18:50:56.747Z,99167.84
2022-11-21T18:55:59.248Z,99171.63
2022-11-21T19:01:02.276Z,99169.41
2022-11-21T19:06:07.774Z,99166.56
2022-11-21T19:11:11.841Z,99153.38
2022-11-21T19:16:16.661Z,99161.88
2022-11-21T19:21:18.389Z,99163.94
2022-11-21T19:26:22.677Z,99166.84
2022-11-21T19:31:24.683Z,99164.00
2022-11-21T19:36:27.062Z,99162.03
2022-11-21T19:41:31.046Z,99166.75
2022-11-21T19:46:35.456Z,99159.84
2022-11-21T19:51:41.922Z,99152.47
2022-11-21T19:56:43.589Z,99172.25
2022-11-21T20:01:49.617Z,99155.13
2022-11-21T20:06:54.956Z,99175.41
2022-11-21T20:11:56.591Z,99181.56
2022-11-21T20:16:58.178Z,99184.03
2022-11-21T20:22:00.172Z,99181.38
2022-11-21T20:27:01.825Z,99180.81
2022-11-21T20:32:03.915Z,99189.56
2022-11-21T20:37:05.714Z,99197.34
2022-11-21T20:42:08.297Z,99207.25
2022-11-21T20:47:10.082Z,99185.25
2022-11-21T20:57:33.263Z,99175.69
2022-11-21T21:02:34.822Z,99185.19
2022-11-21T21:07:36.581Z,99181.50
2022-11-21T21:12:38.579Z,99174.06
2022-11-21T21:17:40.136Z,99150.84
2022-11-21T21:22:41.847Z,99156.09
2022-11-21T21:27:43.458Z,99144.47
2022-11-21T21:32:45.601Z,99144.09
2022-11-21T21:37:48.385Z,99140.66
2022-11-21T21:42:50.020Z,99125.25
2022-11-21T21:47:51.587Z,99121.81
2022-11-21T21:52:53.176Z,99126.94
2022-11-21T21:57:55.919Z,99106.03
2022-11-21T22:02:57.470Z,99104.16
2022-11-21T22:07:59.675Z,99121.16
2022-11-21T22:13:01.210Z,99111.28
2022-11-21T22:18:02.795Z,99107.16
2022-11-21T22:23:04.374Z,99102.75
2022-11-21T22:28:06.093Z,99093.38
2022-11-21T22:33:07.845Z,99099.25
2022-11-21T22:38:09.439Z,99116.72
2022-11-21T22:43:11.075Z,99127.31
2022-11-21T22:48:14.439Z,99117.22
2022-11-21T22:53:16.022Z,99111.91
2022-11-21T22:58:17.572Z,99112.19
2022-11-21T23:03:19.172Z,99105.47
2022-11-21T23:08:20.710Z,99101.56
2022-11-21T23:13:22.304Z,99102.44
2022-11-21T23:18:23.916Z,99099.19
2022-11-21T23:23:25.574Z,99117.53
2022-11-21T23:28:28.522Z,99126.41
2022-11-21T23:33:30.091Z,99139.00
2022-11-21T23:38:31.925Z,99123.91
2022-11-21T23:43:33.854Z,99126.47
2022-11-21T23:48:35.558Z,99103.41
2022-11-21T23:53:37.133Z,99101.50
2022-11-21T23:58:39.490Z,99098.28
